Williston, North Dakota
Current Conditions -  °F | °C
As of 1:52 PM on Friday 24 Oct 2014 (Local Time) from KISN Reporting Station
Clear Clear  
Wind Chill: 62°   Ceiling: Unl
Heat Index: 62°   Visibility: 10mi
Dew Point: 29°   Wind: 29mph
Humidity: 29%   Direction: 290°WNW
Pressure: 29.92"   Gusts: 37mph
Location:  48.15°N, 103.62°W
Report Text: KISN 241852Z AUTO 29025G32KT 10SM CLR 17/M02 A2992 RMK AO2 PK WND 29033/1840 SLP138 T01671017
Loading
Personal Weather Stations






























Interactive Weather Map New forecast layout! Learn more

10-Day Weather Forecast

Advertisements
Track Severe Weather on mobile